sensor_id;sensor_type;location;lat;lon;timestamp;P1;durP1;ratioP1;P2;durP2;ratioP2
19205;SDS011;59358;52.134;5.596;2023-07-16T00:02:06;10.30;;;3.03;;
19205;SDS011;59358;52.134;5.596;2023-07-16T00:04:35;8.38;;;2.97;;
19205;SDS011;59358;52.134;5.596;2023-07-16T00:07:01;10.02;;;2.95;;
19205;SDS011;59358;52.134;5.596;2023-07-16T00:09:28;6.50;;;2.67;;
19205;SDS011;59358;52.134;5.596;2023-07-16T00:11:55;8.75;;;3.00;;
19205;SDS011;59358;52.134;5.596;2023-07-16T00:14:23;7.40;;;2.65;;
19205;SDS011;59358;52.134;5.596;2023-07-16T00:16:50;10.45;;;3.15;;
19205;SDS011;59358;52.134;5.596;2023-07-16T00:19:17;8.52;;;3.05;;
19205;SDS011;59358;52.134;5.596;2023-07-16T00:21:45;9.07;;;2.95;;
19205;SDS011;59358;52.134;5.596;2023-07-16T00:24:12;8.27;;;3.15;;
19205;SDS011;59358;52.134;5.596;2023-07-16T00:26:39;12.15;;;3.63;;
19205;SDS011;59358;52.134;5.596;2023-07-16T00:29:06;9.38;;;3.78;;
19205;SDS011;59358;52.134;5.596;2023-07-16T00:31:33;9.95;;;3.47;;
19205;SDS011;59358;52.134;5.596;2023-07-16T00:34:00;8.65;;;2.97;;
19205;SDS011;59358;52.134;5.596;2023-07-16T00:36:28;9.77;;;3.08;;
19205;SDS011;59358;52.134;5.596;2023-07-16T00:38:56;7.93;;;3.20;;
19205;SDS011;59358;52.134;5.596;2023-07-16T00:41:23;7.55;;;3.13;;
19205;SDS011;59358;52.134;5.596;2023-07-16T00:43:50;9.05;;;3.70;;
19205;SDS011;59358;52.134;5.596;2023-07-16T00:46:19;10.65;;;3.58;;
19205;SDS011;59358;52.134;5.596;2023-07-16T00:48:46;9.80;;;2.80;;
19205;SDS011;59358;52.134;5.596;2023-07-16T00:51:13;12.13;;;2.78;;
19205;SDS011;59358;52.134;5.596;2023-07-16T00:53:40;6.45;;;3.00;;
19205;SDS011;59358;52.134;5.596;2023-07-16T00:56:09;6.35;;;3.00;;
19205;SDS011;59358;52.134;5.596;2023-07-16T00:58:36;8.52;;;2.80;;
19205;SDS011;59358;52.134;5.596;2023-07-16T01:01:03;8.10;;;2.72;;
19205;SDS011;59358;52.134;5.596;2023-07-16T01:03:30;6.97;;;3.10;;
19205;SDS011;59358;52.134;5.596;2023-07-16T01:05:57;8.48;;;2.88;;
19205;SDS011;59358;52.134;5.596;2023-07-16T01:08:31;8.48;;;3.10;;
19205;SDS011;59358;52.134;5.596;2023-07-16T01:11:01;8.95;;;2.95;;
19205;SDS011;59358;52.134;5.596;2023-07-16T01:13:30;7.32;;;2.70;;
19205;SDS011;59358;52.134;5.596;2023-07-16T01:15:58;9.07;;;2.90;;
19205;SDS011;59358;52.134;5.596;2023-07-16T01:18:24;6.22;;;2.95;;
19205;SDS011;59358;52.134;5.596;2023-07-16T01:20:52;14.70;;;3.72;;
19205;SDS011;59358;52.134;5.596;2023-07-16T01:23:26;11.93;;;3.55;;
19205;SDS011;59358;52.134;5.596;2023-07-16T01:26:05;8.30;;;3.28;;
19205;SDS011;59358;52.134;5.596;2023-07-16T01:29:05;9.40;;;3.20;;
19205;SDS011;59358;52.134;5.596;2023-07-16T01:31:46;9.82;;;3.20;;
19205;SDS011;59358;52.134;5.596;2023-07-16T01:34:16;10.10;;;3.55;;
19205;SDS011;59358;52.134;5.596;2023-07-16T01:36:43;8.02;;;3.50;;
19205;SDS011;59358;52.134;5.596;2023-07-16T01:39:10;11.43;;;3.55;;
19205;SDS011;59358;52.134;5.596;2023-07-16T01:41:37;12.60;;;2.92;;
19205;SDS011;59358;52.134;5.596;2023-07-16T01:44:05;7.40;;;3.30;;
19205;SDS011;59358;52.134;5.596;2023-07-16T01:46:32;10.75;;;3.13;;
19205;SDS011;59358;52.134;5.596;2023-07-16T01:48:59;8.35;;;3.55;;
19205;SDS011;59358;52.134;5.596;2023-07-16T01:51:26;10.45;;;4.28;;
19205;SDS011;59358;52.134;5.596;2023-07-16T01:53:53;9.73;;;3.28;;
19205;SDS011;59358;52.134;5.596;2023-07-16T01:56:20;14.70;;;3.22;;
19205;SDS011;59358;52.134;5.596;2023-07-16T01:58:47;7.05;;;3.10;;
19205;SDS011;59358;52.134;5.596;2023-07-16T02:01:15;9.52;;;3.60;;
19205;SDS011;59358;52.134;5.596;2023-07-16T02:03:42;8.98;;;3.40;;
19205;SDS011;59358;52.134;5.596;2023-07-16T02:06:09;10.80;;;3.60;;
19205;SDS011;59358;52.134;5.596;2023-07-16T02:08:36;8.98;;;3.65;;
19205;SDS011;59358;52.134;5.596;2023-07-16T02:11:02;8.43;;;3.47;;
19205;SDS011;59358;52.134;5.596;2023-07-16T02:13:30;11.93;;;3.85;;
19205;SDS011;59358;52.134;5.596;2023-07-16T02:15:57;11.77;;;3.90;;
19205;SDS011;59358;52.134;5.596;2023-07-16T02:18:25;11.32;;;4.55;;
19205;SDS011;59358;52.134;5.596;2023-07-16T02:20:52;12.15;;;4.28;;
19205;SDS011;59358;52.134;5.596;2023-07-16T02:23:18;14.38;;;4.03;;
19205;SDS011;59358;52.134;5.596;2023-07-16T02:25:45;7.60;;;3.88;;
19205;SDS011;59358;52.134;5.596;2023-07-16T02:28:12;11.45;;;4.68;;
19205;SDS011;59358;52.134;5.596;2023-07-16T02:30:40;13.77;;;4.50;;
19205;SDS011;59358;52.134;5.596;2023-07-16T02:33:07;9.52;;;3.80;;
19205;SDS011;59358;52.134;5.596;2023-07-16T02:35:35;11.77;;;4.57;;
19205;SDS011;59358;52.134;5.596;2023-07-16T02:38:02;11.32;;;4.57;;
19205;SDS011;59358;52.134;5.596;2023-07-16T02:40:29;12.57;;;4.30;;
19205;SDS011;59358;52.134;5.596;2023-07-16T02:42:55;10.45;;;4.05;;
19205;SDS011;59358;52.134;5.596;2023-07-16T02:45:22;11.23;;;4.45;;
19205;SDS011;59358;52.134;5.596;2023-07-16T02:47:49;10.80;;;4.25;;
19205;SDS011;59358;52.134;5.596;2023-07-16T02:50:16;9.77;;;4.32;;
19205;SDS011;59358;52.134;5.596;2023-07-16T02:52:44;11.30;;;3.58;;
19205;SDS011;59358;52.134;5.596;2023-07-16T02:55:11;8.32;;;4.00;;
19205;SDS011;59358;52.134;5.596;2023-07-16T02:57:38;11.32;;;4.25;;
19205;SDS011;59358;52.134;5.596;2023-07-16T03:00:06;12.52;;;3.72;;
19205;SDS011;59358;52.134;5.596;2023-07-16T03:02:33;11.40;;;3.70;;
19205;SDS011;59358;52.134;5.596;2023-07-16T03:05:00;12.95;;;4.15;;
19205;SDS011;59358;52.134;5.596;2023-07-16T03:07:27;9.65;;;3.92;;
19205;SDS011;59358;52.134;5.596;2023-07-16T03:09:55;11.35;;;3.88;;
19205;SDS011;59358;52.134;5.596;2023-07-16T03:12:22;12.10;;;3.97;;
19205;SDS011;59358;52.134;5.596;2023-07-16T03:14:49;13.05;;;4.35;;
19205;SDS011;59358;52.134;5.596;2023-07-16T03:17:19;9.85;;;5.03;;
19205;SDS011;59358;52.134;5.596;2023-07-16T03:19:46;7.72;;;4.10;;
19205;SDS011;59358;52.134;5.596;2023-07-16T03:22:13;9.88;;;4.45;;
19205;SDS011;59358;52.134;5.596;2023-07-16T03:24:40;12.90;;;5.10;;
19205;SDS011;59358;52.134;5.596;2023-07-16T03:27:09;11.25;;;4.35;;
19205;SDS011;59358;52.134;5.596;2023-07-16T03:29:36;9.55;;;4.57;;
19205;SDS011;59358;52.134;5.596;2023-07-16T03:32:03;10.98;;;4.32;;
19205;SDS011;59358;52.134;5.596;2023-07-16T03:34:30;11.18;;;4.97;;
19205;SDS011;59358;52.134;5.596;2023-07-16T03:36:57;20.95;;;5.32;;
19205;SDS011;59358;52.134;5.596;2023-07-16T03:39:24;11.65;;;4.03;;
19205;SDS011;59358;52.134;5.596;2023-07-16T03:41:51;9.00;;;4.28;;
19205;SDS011;59358;52.134;5.596;2023-07-16T03:44:19;11.85;;;4.13;;
19205;SDS011;59358;52.134;5.596;2023-07-16T03:46:46;7.43;;;4.28;;
19205;SDS011;59358;52.134;5.596;2023-07-16T03:49:12;7.45;;;4.20;;
19205;SDS011;59358;52.134;5.596;2023-07-16T03:51:39;14.57;;;4.15;;
19205;SDS011;59358;52.134;5.596;2023-07-16T03:54:06;8.30;;;4.00;;
19205;SDS011;59358;52.134;5.596;2023-07-16T03:56:33;13.02;;;3.72;;
19205;SDS011;59358;52.134;5.596;2023-07-16T03:59:00;9.15;;;3.97;;
19205;SDS011;59358;52.134;5.596;2023-07-16T04:01:28;9.18;;;3.80;;
19205;SDS011;59358;52.134;5.596;2023-07-16T04:03:55;9.02;;;3.92;;
19205;SDS011;59358;52.134;5.596;2023-07-16T04:06:22;9.60;;;4.05;;
19205;SDS011;59358;52.134;5.596;2023-07-16T04:08:49;13.07;;;4.53;;
19205;SDS011;59358;52.134;5.596;2023-07-16T04:11:16;10.45;;;4.32;;
19205;SDS011;59358;52.134;5.596;2023-07-16T04:13:43;7.22;;;4.28;;
19205;SDS011;59358;52.134;5.596;2023-07-16T04:16:09;11.70;;;4.35;;
19205;SDS011;59358;52.134;5.596;2023-07-16T04:18:38;9.48;;;4.40;;
19205;SDS011;59358;52.134;5.596;2023-07-16T04:21:05;8.60;;;4.50;;
19205;SDS011;59358;52.134;5.596;2023-07-16T04:23:31;10.60;;;4.10;;
19205;SDS011;59358;52.134;5.596;2023-07-16T04:25:58;9.57;;;4.32;;
19205;SDS011;59358;52.134;5.596;2023-07-16T04:28:25;7.82;;;4.53;;
19205;SDS011;59358;52.134;5.596;2023-07-16T04:30:52;8.93;;;4.72;;
19205;SDS011;59358;52.134;5.596;2023-07-16T04:33:19;9.90;;;4.88;;
19205;SDS011;59358;52.134;5.596;2023-07-16T04:35:47;12.90;;;4.32;;
19205;SDS011;59358;52.134;5.596;2023-07-16T04:38:14;12.40;;;4.60;;
19205;SDS011;59358;52.134;5.596;2023-07-16T04:40:42;10.43;;;4.82;;
19205;SDS011;59358;52.134;5.596;2023-07-16T04:43:09;9.65;;;4.68;;
19205;SDS011;59358;52.134;5.596;2023-07-16T04:45:35;12.05;;;5.75;;
19205;SDS011;59358;52.134;5.596;2023-07-16T04:48:04;11.65;;;4.68;;
19205;SDS011;59358;52.134;5.596;2023-07-16T04:50:31;11.10;;;4.90;;
19205;SDS011;59358;52.134;5.596;2023-07-16T04:53:00;11.70;;;4.65;;
19205;SDS011;59358;52.134;5.596;2023-07-16T04:55:26;11.40;;;5.00;;
19205;SDS011;59358;52.134;5.596;2023-07-16T04:57:54;8.02;;;4.50;;
19205;SDS011;59358;52.134;5.596;2023-07-16T05:00:22;9.93;;;4.45;;
19205;SDS011;59358;52.134;5.596;2023-07-16T05:02:49;15.23;;;4.65;;
19205;SDS011;59358;52.134;5.596;2023-07-16T05:05:16;10.13;;;4.90;;
19205;SDS011;59358;52.134;5.596;2023-07-16T05:07:42;16.77;;;5.60;;
19205;SDS011;59358;52.134;5.596;2023-07-16T05:10:11;9.65;;;4.30;;
19205;SDS011;59358;52.134;5.596;2023-07-16T05:12:38;9.85;;;4.70;;
19205;SDS011;59358;52.134;5.596;2023-07-16T05:15:05;10.57;;;5.30;;
19205;SDS011;59358;52.134;5.596;2023-07-16T05:17:33;11.55;;;4.90;;
19205;SDS011;59358;52.134;5.596;2023-07-16T05:20:00;8.80;;;5.15;;
19205;SDS011;59358;52.134;5.596;2023-07-16T05:22:28;11.88;;;5.18;;
19205;SDS011;59358;52.134;5.596;2023-07-16T05:24:55;9.50;;;5.25;;
19205;SDS011;59358;52.134;5.596;2023-07-16T05:27:23;11.75;;;5.70;;
19205;SDS011;59358;52.134;5.596;2023-07-16T05:29:50;15.27;;;5.72;;
19205;SDS011;59358;52.134;5.596;2023-07-16T05:32:17;10.20;;;5.40;;
19205;SDS011;59358;52.134;5.596;2023-07-16T05:34:44;10.27;;;5.60;;
19205;SDS011;59358;52.134;5.596;2023-07-16T05:37:11;8.82;;;5.00;;
19205;SDS011;59358;52.134;5.596;2023-07-16T05:39:38;10.70;;;6.15;;
19205;SDS011;59358;52.134;5.596;2023-07-16T05:42:05;15.30;;;5.25;;
19205;SDS011;59358;52.134;5.596;2023-07-16T05:44:34;9.18;;;5.15;;
19205;SDS011;59358;52.134;5.596;2023-07-16T05:47:01;12.55;;;6.20;;
19205;SDS011;59358;52.134;5.596;2023-07-16T05:49:28;11.18;;;5.20;;
19205;SDS011;59358;52.134;5.596;2023-07-16T05:51:55;13.73;;;5.43;;
19205;SDS011;59358;52.134;5.596;2023-07-16T05:54:22;8.00;;;5.20;;
19205;SDS011;59358;52.134;5.596;2023-07-16T05:56:50;11.65;;;5.82;;
19205;SDS011;59358;52.134;5.596;2023-07-16T05:59:16;15.00;;;5.93;;
19205;SDS011;59358;52.134;5.596;2023-07-16T06:01:45;10.15;;;5.38;;
19205;SDS011;59358;52.134;5.596;2023-07-16T06:04:12;9.88;;;5.65;;
19205;SDS011;59358;52.134;5.596;2023-07-16T06:06:39;11.77;;;5.85;;
19205;SDS011;59358;52.134;5.596;2023-07-16T06:09:06;13.75;;;6.40;;
19205;SDS011;59358;52.134;5.596;2023-07-16T06:11:33;11.68;;;6.10;;
19205;SDS011;59358;52.134;5.596;2023-07-16T06:14:00;12.40;;;5.15;;
19205;SDS011;59358;52.134;5.596;2023-07-16T06:16:26;11.85;;;5.30;;
19205;SDS011;59358;52.134;5.596;2023-07-16T06:18:54;9.52;;;5.97;;
19205;SDS011;59358;52.134;5.596;2023-07-16T06:21:21;14.43;;;5.97;;
19205;SDS011;59358;52.134;5.596;2023-07-16T06:23:48;14.30;;;5.80;;
19205;SDS011;59358;52.134;5.596;2023-07-16T06:26:15;9.25;;;5.53;;
19205;SDS011;59358;52.134;5.596;2023-07-16T06:28:42;12.23;;;5.93;;
19205;SDS011;59358;52.134;5.596;2023-07-16T06:31:09;15.52;;;6.45;;
19205;SDS011;59358;52.134;5.596;2023-07-16T06:33:36;16.83;;;6.57;;
19205;SDS011;59358;52.134;5.596;2023-07-16T06:36:04;12.32;;;6.22;;
19205;SDS011;59358;52.134;5.596;2023-07-16T06:38:31;13.98;;;6.28;;
19205;SDS011;59358;52.134;5.596;2023-07-16T06:40:58;11.35;;;5.93;;
19205;SDS011;59358;52.134;5.596;2023-07-16T06:43:25;14.70;;;6.28;;
19205;SDS011;59358;52.134;5.596;2023-07-16T06:45:52;15.10;;;6.72;;
19205;SDS011;59358;52.134;5.596;2023-07-16T06:48:19;12.40;;;5.60;;
19205;SDS011;59358;52.134;5.596;2023-07-16T06:50:46;12.05;;;7.03;;
19205;SDS011;59358;52.134;5.596;2023-07-16T06:53:14;13.05;;;6.40;;
19205;SDS011;59358;52.134;5.596;2023-07-16T06:55:41;11.23;;;5.95;;
19205;SDS011;59358;52.134;5.596;2023-07-16T06:58:09;12.43;;;6.40;;
19205;SDS011;59358;52.134;5.596;2023-07-16T07:00:37;11.15;;;6.43;;
19205;SDS011;59358;52.134;5.596;2023-07-16T07:03:04;14.10;;;7.22;;
19205;SDS011;59358;52.134;5.596;2023-07-16T07:05:31;13.75;;;5.93;;
19205;SDS011;59358;52.134;5.596;2023-07-16T07:07:57;10.85;;;5.63;;
19205;SDS011;59358;52.134;5.596;2023-07-16T07:10:26;13.13;;;5.90;;
19205;SDS011;59358;52.134;5.596;2023-07-16T07:12:53;13.43;;;6.97;;
19205;SDS011;59358;52.134;5.596;2023-07-16T07:15:20;14.35;;;6.13;;
19205;SDS011;59358;52.134;5.596;2023-07-16T07:17:47;20.95;;;6.45;;
19205;SDS011;59358;52.134;5.596;2023-07-16T07:20:15;13.80;;;7.00;;
19205;SDS011;59358;52.134;5.596;2023-07-16T07:22:42;16.55;;;6.10;;
19205;SDS011;59358;52.134;5.596;2023-07-16T07:25:09;13.10;;;6.10;;
19205;SDS011;59358;52.134;5.596;2023-07-16T07:27:37;14.80;;;5.30;;
19205;SDS011;59358;52.134;5.596;2023-07-16T07:30:04;17.08;;;6.13;;
19205;SDS011;59358;52.134;5.596;2023-07-16T07:32:32;11.98;;;6.05;;
19205;SDS011;59358;52.134;5.596;2023-07-16T07:35:03;12.63;;;6.85;;
19205;SDS011;59358;52.134;5.596;2023-07-16T07:37:30;11.88;;;6.18;;
19205;SDS011;59358;52.134;5.596;2023-07-16T07:39:58;11.75;;;6.35;;
19205;SDS011;59358;52.134;5.596;2023-07-16T07:42:25;20.05;;;6.65;;
19205;SDS011;59358;52.134;5.596;2023-07-16T07:44:54;12.60;;;5.82;;
19205;SDS011;59358;52.134;5.596;2023-07-16T07:47:22;14.82;;;5.93;;
19205;SDS011;59358;52.134;5.596;2023-07-16T07:49:50;13.38;;;6.50;;
19205;SDS011;59358;52.134;5.596;2023-07-16T07:52:18;13.05;;;6.10;;
19205;SDS011;59358;52.134;5.596;2023-07-16T07:54:47;12.48;;;6.28;;
19205;SDS011;59358;52.134;5.596;2023-07-16T07:57:37;10.90;;;5.95;;
19205;SDS011;59358;52.134;5.596;2023-07-16T08:00:07;12.40;;;6.07;;
19205;SDS011;59358;52.134;5.596;2023-07-16T08:02:36;14.10;;;6.55;;
19205;SDS011;59358;52.134;5.596;2023-07-16T08:05:04;11.57;;;6.05;;
19205;SDS011;59358;52.134;5.596;2023-07-16T08:07:31;9.60;;;5.82;;
19205;SDS011;59358;52.134;5.596;2023-07-16T08:09:58;12.77;;;6.07;;
19205;SDS011;59358;52.134;5.596;2023-07-16T08:12:25;10.82;;;5.85;;
19205;SDS011;59358;52.134;5.596;2023-07-16T08:14:52;10.63;;;6.20;;
19205;SDS011;59358;52.134;5.596;2023-07-16T08:17:20;13.70;;;6.38;;
19205;SDS011;59358;52.134;5.596;2023-07-16T08:19:47;17.65;;;5.80;;
19205;SDS011;59358;52.134;5.596;2023-07-16T08:22:14;12.68;;;6.00;;
19205;SDS011;59358;52.134;5.596;2023-07-16T08:24:41;13.20;;;6.13;;
19205;SDS011;59358;52.134;5.596;2023-07-16T08:27:08;8.88;;;4.82;;
19205;SDS011;59358;52.134;5.596;2023-07-16T08:29:36;17.10;;;6.35;;
19205;SDS011;59358;52.134;5.596;2023-07-16T08:32:03;11.75;;;5.63;;
19205;SDS011;59358;52.134;5.596;2023-07-16T08:34:31;12.05;;;6.28;;
19205;SDS011;59358;52.134;5.596;2023-07-16T08:36:58;13.23;;;6.07;;
19205;SDS011;59358;52.134;5.596;2023-07-16T08:39:25;16.95;;;7.07;;
19205;SDS011;59358;52.134;5.596;2023-07-16T08:41:52;14.25;;;6.90;;
19205;SDS011;59358;52.134;5.596;2023-07-16T08:44:19;11.27;;;6.20;;
19205;SDS011;59358;52.134;5.596;2023-07-16T08:46:47;14.35;;;6.63;;
19205;SDS011;59358;52.134;5.596;2023-07-16T08:49:14;14.55;;;7.03;;
19205;SDS011;59358;52.134;5.596;2023-07-16T08:51:46;14.65;;;6.78;;
19205;SDS011;59358;52.134;5.596;2023-07-16T08:54:14;10.63;;;5.97;;
19205;SDS011;59358;52.134;5.596;2023-07-16T08:56:42;10.00;;;6.53;;
19205;SDS011;59358;52.134;5.596;2023-07-16T08:59:10;17.63;;;6.72;;
19205;SDS011;59358;52.134;5.596;2023-07-16T09:01:37;14.38;;;7.18;;
19205;SDS011;59358;52.134;5.596;2023-07-16T09:04:04;11.57;;;6.82;;
19205;SDS011;59358;52.134;5.596;2023-07-16T09:06:31;12.52;;;6.43;;
19205;SDS011;59358;52.134;5.596;2023-07-16T09:08:59;12.25;;;6.47;;
19205;SDS011;59358;52.134;5.596;2023-07-16T09:11:26;11.82;;;6.57;;
19205;SDS011;59358;52.134;5.596;2023-07-16T09:13:53;16.42;;;6.97;;
19205;SDS011;59358;52.134;5.596;2023-07-16T09:16:20;17.95;;;7.30;;
19205;SDS011;59358;52.134;5.596;2023-07-16T09:18:47;18.63;;;7.22;;
19205;SDS011;59358;52.134;5.596;2023-07-16T09:21:14;12.40;;;7.20;;
19205;SDS011;59358;52.134;5.596;2023-07-16T09:23:41;13.93;;;6.80;;
19205;SDS011;59358;52.134;5.596;2023-07-16T09:26:10;13.70;;;6.75;;
19205;SDS011;59358;52.134;5.596;2023-07-16T09:28:37;11.48;;;6.85;;
19205;SDS011;59358;52.134;5.596;2023-07-16T09:31:04;15.35;;;6.88;;
19205;SDS011;59358;52.134;5.596;2023-07-16T09:33:31;11.13;;;6.20;;
19205;SDS011;59358;52.134;5.596;2023-07-16T09:35:59;12.98;;;7.57;;
19205;SDS011;59358;52.134;5.596;2023-07-16T09:38:27;14.80;;;7.35;;
19205;SDS011;59358;52.134;5.596;2023-07-16T09:40:55;18.55;;;7.47;;
19205;SDS011;59358;52.134;5.596;2023-07-16T09:43:24;16.52;;;7.10;;
19205;SDS011;59358;52.134;5.596;2023-07-16T09:45:51;13.00;;;6.60;;
19205;SDS011;59358;52.134;5.596;2023-07-16T09:48:18;10.60;;;6.20;;
19205;SDS011;59358;52.134;5.596;2023-07-16T09:50:47;12.00;;;5.95;;
19205;SDS011;59358;52.134;5.596;2023-07-16T09:53:17;14.30;;;5.68;;
19205;SDS011;59358;52.134;5.596;2023-07-16T09:55:46;11.43;;;5.85;;
19205;SDS011;59358;52.134;5.596;2023-07-16T09:58:14;11.55;;;6.35;;
19205;SDS011;59358;52.134;5.596;2023-07-16T10:00:46;12.00;;;5.80;;
19205;SDS011;59358;52.134;5.596;2023-07-16T10:03:14;12.70;;;6.20;;
19205;SDS011;59358;52.134;5.596;2023-07-16T10:05:42;12.93;;;5.97;;
19205;SDS011;59358;52.134;5.596;2023-07-16T10:08:17;9.93;;;6.15;;
19205;SDS011;59358;52.134;5.596;2023-07-16T10:10:48;15.23;;;6.45;;
19205;SDS011;59358;52.134;5.596;2023-07-16T10:13:21;11.52;;;5.82;;
19205;SDS011;59358;52.134;5.596;2023-07-16T10:15:52;11.85;;;6.47;;
19205;SDS011;59358;52.134;5.596;2023-07-16T10:18:23;15.63;;;6.35;;
19205;SDS011;59358;52.134;5.596;2023-07-16T10:20:52;8.40;;;5.60;;
19205;SDS011;59358;52.134;5.596;2023-07-16T10:23:19;12.60;;;6.38;;
19205;SDS011;59358;52.134;5.596;2023-07-16T10:25:57;10.55;;;6.20;;
19205;SDS011;59358;52.134;5.596;2023-07-16T10:28:25;11.75;;;6.20;;
19205;SDS011;59358;52.134;5.596;2023-07-16T10:30:53;12.85;;;6.68;;
19205;SDS011;59358;52.134;5.596;2023-07-16T10:33:20;9.90;;;5.45;;
19205;SDS011;59358;52.134;5.596;2023-07-16T10:35:47;9.15;;;5.72;;
19205;SDS011;59358;52.134;5.596;2023-07-16T10:38:14;17.02;;;6.63;;
19205;SDS011;59358;52.134;5.596;2023-07-16T10:40:42;13.80;;;6.80;;
19205;SDS011;59358;52.134;5.596;2023-07-16T10:43:10;17.10;;;6.45;;
19205;SDS011;59358;52.134;5.596;2023-07-16T10:45:37;9.48;;;5.88;;
19205;SDS011;59358;52.134;5.596;2023-07-16T10:48:06;14.50;;;7.28;;
19205;SDS011;59358;52.134;5.596;2023-07-16T10:50:33;10.93;;;6.10;;
19205;SDS011;59358;52.134;5.596;2023-07-16T10:53:01;10.82;;;5.90;;
19205;SDS011;59358;52.134;5.596;2023-07-16T10:55:29;10.95;;;6.47;;
19205;SDS011;59358;52.134;5.596;2023-07-16T10:57:57;10.85;;;6.88;;
19205;SDS011;59358;52.134;5.596;2023-07-16T11:00:24;14.25;;;6.63;;
19205;SDS011;59358;52.134;5.596;2023-07-16T11:02:51;15.07;;;6.75;;
19205;SDS011;59358;52.134;5.596;2023-07-16T11:05:20;11.65;;;6.30;;
19205;SDS011;59358;52.134;5.596;2023-07-16T11:07:47;12.55;;;6.28;;
19205;SDS011;59358;52.134;5.596;2023-07-16T11:10:15;15.77;;;6.10;;
19205;SDS011;59358;52.134;5.596;2023-07-16T11:12:42;11.23;;;6.70;;
19205;SDS011;59358;52.134;5.596;2023-07-16T11:15:10;12.13;;;5.88;;
19205;SDS011;59358;52.134;5.596;2023-07-16T11:17:37;13.88;;;6.07;;
19205;SDS011;59358;52.134;5.596;2023-07-16T11:20:06;12.43;;;6.20;;
19205;SDS011;59358;52.134;5.596;2023-07-16T11:22:38;14.07;;;6.00;;
19205;SDS011;59358;52.134;5.596;2023-07-16T11:25:10;14.70;;;6.43;;
19205;SDS011;59358;52.134;5.596;2023-07-16T11:27:40;11.85;;;6.70;;
19205;SDS011;59358;52.134;5.596;2023-07-16T11:30:07;12.15;;;6.00;;
19205;SDS011;59358;52.134;5.596;2023-07-16T11:32:36;12.48;;;6.50;;
19205;SDS011;59358;52.134;5.596;2023-07-16T11:35:04;15.10;;;5.40;;
19205;SDS011;59358;52.134;5.596;2023-07-16T11:37:34;9.25;;;5.35;;
19205;SDS011;59358;52.134;5.596;2023-07-16T11:40:03;9.98;;;5.18;;
19205;SDS011;59358;52.134;5.596;2023-07-16T11:42:31;7.70;;;5.55;;
19205;SDS011;59358;52.134;5.596;2023-07-16T11:45:00;10.80;;;5.63;;
19205;SDS011;59358;52.134;5.596;2023-07-16T11:47:27;10.27;;;5.53;;
19205;SDS011;59358;52.134;5.596;2023-07-16T11:49:55;9.45;;;5.22;;
19205;SDS011;59358;52.134;5.596;2023-07-16T11:52:22;13.82;;;5.85;;
19205;SDS011;59358;52.134;5.596;2023-07-16T11:54:51;10.52;;;5.57;;
19205;SDS011;59358;52.134;5.596;2023-07-16T11:57:19;8.63;;;5.35;;
19205;SDS011;59358;52.134;5.596;2023-07-16T11:59:46;11.85;;;5.57;;
19205;SDS011;59358;52.134;5.596;2023-07-16T12:02:13;10.00;;;5.05;;
19205;SDS011;59358;52.134;5.596;2023-07-16T12:04:40;10.38;;;5.35;;
19205;SDS011;59358;52.134;5.596;2023-07-16T12:07:07;12.52;;;6.38;;
19205;SDS011;59358;52.134;5.596;2023-07-16T12:09:34;11.68;;;6.70;;
19205;SDS011;59358;52.134;5.596;2023-07-16T12:12:01;14.52;;;6.72;;
19205;SDS011;59358;52.134;5.596;2023-07-16T12:14:30;10.65;;;6.45;;
19205;SDS011;59358;52.134;5.596;2023-07-16T12:16:57;13.85;;;5.88;;
19205;SDS011;59358;52.134;5.596;2023-07-16T12:19:24;10.63;;;5.90;;
19205;SDS011;59358;52.134;5.596;2023-07-16T12:21:51;11.25;;;6.50;;
19205;SDS011;59358;52.134;5.596;2023-07-16T12:24:18;12.38;;;5.95;;
19205;SDS011;59358;52.134;5.596;2023-07-16T12:26:45;9.05;;;5.82;;
19205;SDS011;59358;52.134;5.596;2023-07-16T12:29:12;9.48;;;4.95;;
19205;SDS011;59358;52.134;5.596;2023-07-16T12:31:40;10.07;;;5.22;;
19205;SDS011;59358;52.134;5.596;2023-07-16T12:34:07;12.07;;;5.13;;
19205;SDS011;59358;52.134;5.596;2023-07-16T12:36:34;9.85;;;5.28;;
19205;SDS011;59358;52.134;5.596;2023-07-16T12:39:01;9.80;;;4.93;;
19205;SDS011;59358;52.134;5.596;2023-07-16T12:41:28;8.75;;;5.03;;
19205;SDS011;59358;52.134;5.596;2023-07-16T12:43:55;10.32;;;5.65;;
19205;SDS011;59358;52.134;5.596;2023-07-16T12:46:22;8.60;;;5.03;;
19205;SDS011;59358;52.134;5.596;2023-07-16T12:48:50;12.02;;;5.68;;
19205;SDS011;59358;52.134;5.596;2023-07-16T12:51:17;7.10;;;4.68;;
19205;SDS011;59358;52.134;5.596;2023-07-16T12:53:44;8.48;;;4.20;;
19205;SDS011;59358;52.134;5.596;2023-07-16T12:56:11;7.38;;;3.92;;
19205;SDS011;59358;52.134;5.596;2023-07-16T12:58:38;5.32;;;4.05;;
19205;SDS011;59358;52.134;5.596;2023-07-16T13:01:05;7.70;;;3.92;;
19205;SDS011;59358;52.134;5.596;2023-07-16T13:03:33;9.43;;;4.05;;
19205;SDS011;59358;52.134;5.596;2023-07-16T13:06:01;7.32;;;3.95;;
19205;SDS011;59358;52.134;5.596;2023-07-16T13:08:28;5.88;;;3.35;;
19205;SDS011;59358;52.134;5.596;2023-07-16T13:10:55;5.63;;;3.40;;
19205;SDS011;59358;52.134;5.596;2023-07-16T13:13:22;8.80;;;3.30;;
19205;SDS011;59358;52.134;5.596;2023-07-16T13:15:50;7.90;;;2.97;;
19205;SDS011;59358;52.134;5.596;2023-07-16T13:18:17;7.72;;;2.67;;
19205;SDS011;59358;52.134;5.596;2023-07-16T13:20:44;5.10;;;2.83;;
19205;SDS011;59358;52.134;5.596;2023-07-16T13:23:12;4.40;;;2.40;;
19205;SDS011;59358;52.134;5.596;2023-07-16T13:25:39;7.75;;;2.60;;
19205;SDS011;59358;52.134;5.596;2023-07-16T13:28:06;4.20;;;2.22;;
19205;SDS011;59358;52.134;5.596;2023-07-16T13:30:33;5.22;;;2.45;;
19205;SDS011;59358;52.134;5.596;2023-07-16T13:33:00;5.70;;;2.38;;
19205;SDS011;59358;52.134;5.596;2023-07-16T13:35:27;5.22;;;2.58;;
19205;SDS011;59358;52.134;5.596;2023-07-16T13:37:54;5.28;;;2.58;;
19205;SDS011;59358;52.134;5.596;2023-07-16T13:40:22;5.57;;;2.70;;
19205;SDS011;59358;52.134;5.596;2023-07-16T13:42:49;5.07;;;2.75;;
19205;SDS011;59358;52.134;5.596;2023-07-16T13:45:16;5.18;;;2.70;;
19205;SDS011;59358;52.134;5.596;2023-07-16T13:47:43;6.45;;;2.63;;
19205;SDS011;59358;52.134;5.596;2023-07-16T13:50:09;6.85;;;3.92;;
19205;SDS011;59358;52.134;5.596;2023-07-16T13:52:36;8.85;;;3.03;;
19205;SDS011;59358;52.134;5.596;2023-07-16T13:55:04;5.55;;;3.30;;
19205;SDS011;59358;52.134;5.596;2023-07-16T13:57:32;7.32;;;2.60;;
19205;SDS011;59358;52.134;5.596;2023-07-16T13:59:59;7.18;;;3.15;;
19205;SDS011;59358;52.134;5.596;2023-07-16T14:02:29;5.10;;;2.78;;
19205;SDS011;59358;52.134;5.596;2023-07-16T14:04:56;6.10;;;3.65;;
19205;SDS011;59358;52.134;5.596;2023-07-16T14:07:23;7.10;;;2.55;;
19205;SDS011;59358;52.134;5.596;2023-07-16T14:09:50;3.75;;;2.80;;
19205;SDS011;59358;52.134;5.596;2023-07-16T14:12:17;4.60;;;2.88;;
19205;SDS011;59358;52.134;5.596;2023-07-16T14:14:45;7.45;;;3.38;;
19205;SDS011;59358;52.134;5.596;2023-07-16T14:17:12;8.35;;;3.40;;
19205;SDS011;59358;52.134;5.596;2023-07-16T14:19:39;6.72;;;4.18;;
19205;SDS011;59358;52.134;5.596;2023-07-16T14:22:06;8.82;;;3.17;;
19205;SDS011;59358;52.134;5.596;2023-07-16T14:24:36;5.28;;;2.63;;
19205;SDS011;59358;52.134;5.596;2023-07-16T14:27:05;4.13;;;2.58;;
19205;SDS011;59358;52.134;5.596;2023-07-16T14:29:33;4.63;;;2.28;;
19205;SDS011;59358;52.134;5.596;2023-07-16T14:32:03;6.38;;;2.65;;
19205;SDS011;59358;52.134;5.596;2023-07-16T14:34:30;5.25;;;2.40;;
19205;SDS011;59358;52.134;5.596;2023-07-16T14:36:57;6.30;;;2.40;;
19205;SDS011;59358;52.134;5.596;2023-07-16T14:39:24;5.68;;;1.80;;
19205;SDS011;59358;52.134;5.596;2023-07-16T14:41:51;7.25;;;2.53;;
19205;SDS011;59358;52.134;5.596;2023-07-16T14:44:17;6.43;;;2.35;;